Time;durP1;ratioP1;P1;durP2;ratioP2;P2;SDS_P1;SDS_P2;PMS_P1;PMS_P2;Temp;Humidity;BMP_temperature;BMP_pressure;BME280_temperature;BME280_humidity;BME280_pressure;Samples;Min_cycle;Max_cycle;Signal;HPM_P1;HPM_P2
2021/01/22 00:01:37;;;;;;;20.60;15.98;;;;;;;6.17;48.54;99554.14;1776165;80;21170;-65
2021/01/22 00:04:05;;;;;;;20.23;14.53;;;;;;;6.17;48.52;99559.91;1769977;79;22059;-63
2021/01/22 00:06:32;;;;;;;20.88;14.73;;;;;;;6.15;48.50;99549.50;1767991;79;21169;-66
2021/01/22 00:09:00;;;;;;;18.15;14.07;;;;;;;6.15;48.52;99551.31;1796760;79;21378;-65
2021/01/22 00:11:28;;;;;;;21.20;15.00;;;;;;;6.13;48.51;99544.85;1769889;79;21191;-65
2021/01/22 00:13:55;;;;;;;19.02;14.58;;;;;;;6.12;48.50;99551.09;1764637;79;21715;-65
2021/01/22 00:16:22;;;;;;;23.07;15.50;;;;;;;6.12;48.49;99547.62;1752841;80;21643;-65
2021/01/22 00:18:50;;;;;;;19.77;15.10;;;;;;;6.10;48.52;99542.49;1752675;80;21212;-66
2021/01/22 00:21:17;;;;;;;20.82;14.93;;;;;;;6.09;48.50;99541.67;1818897;77;21203;-66
2021/01/22 00:23:46;;;;;;;19.05;15.08;;;;;;;6.09;48.49;99545.63;1830989;77;21147;-66
2021/01/22 00:26:14;;;;;;;19.37;14.80;;;;;;;6.08;48.52;99536.06;1826822;77;21568;-64
2021/01/22 00:28:42;;;;;;;18.65;14.83;;;;;;;6.07;48.51;99547.58;1817113;77;21176;-65
2021/01/22 00:31:09;;;;;;;19.67;14.53;;;;;;;6.06;48.50;99535.84;1776296;79;21575;-67
2021/01/22 00:33:39;;;;;;;19.65;14.80;;;;;;;6.06;48.52;99540.62;1815848;77;21377;-65
2021/01/22 00:36:06;;;;;;;20.68;15.45;;;;;;;6.06;48.51;99533.20;1763632;79;21175;-67
2021/01/22 00:38:34;;;;;;;20.95;14.55;;;;;;;6.05;48.51;99528.92;1789461;79;21517;-66
2021/01/22 00:41:01;;;;;;;22.32;15.80;;;;;;;6.03;48.52;99530.38;1789372;79;21572;-66
2021/01/22 00:43:28;;;;;;;20.95;15.53;;;;;;;6.03;48.49;99522.97;1765423;80;21170;-65
2021/01/22 00:45:57;;;;;;;18.57;14.85;;;;;;;6.02;48.49;99518.16;1775364;80;22295;-66
2021/01/22 00:48:25;;;;;;;21.05;15.98;;;;;;;6.02;48.50;99520.80;1841638;77;21124;-69
2021/01/22 00:50:53;;;;;;;21.30;15.55;;;;;;;6.01;48.50;99506.46;1829161;77;21148;-66
2021/01/22 00:53:20;;;;;;;18.23;14.28;;;;;;;6.00;48.51;99510.88;1828037;77;21214;-67
2021/01/22 00:55:51;;;;;;;21.02;15.63;;;;;;;6.00;48.51;99506.10;1809199;77;21272;-66
2021/01/22 00:58:29;;;;;;;21.60;14.93;;;;;;;6.00;48.53;99512.70;1833911;77;21167;-66
2021/01/22 01:00:59;;;;;;;20.25;15.13;;;;;;;5.98;48.52;99507.56;1768124;79;21663;-65
2021/01/22 01:03:28;;;;;;;22.80;16.15;;;;;;;5.97;48.53;99500.64;1805599;79;21198;-65
2021/01/22 01:05:56;;;;;;;19.82;15.13;;;;;;;5.96;48.51;99506.05;1836514;77;21187;-65
2021/01/22 01:08:24;;;;;;;20.20;14.43;;;;;;;5.97;48.52;99500.64;1793694;77;21120;-66
2021/01/22 01:11:10;;;;;;;21.33;16.33;;;;;;;6.00;48.54;99504.28;1830366;77;25127;-66
2021/01/22 01:13:58;;;;;;;20.15;15.00;;;;;;;5.95;48.52;99494.69;1781997;79;21596;-65
2021/01/22 01:16:26;;;;;;;20.57;16.00;;;;;;;5.94;48.52;99492.16;1804890;79;21199;-66
2021/01/22 01:18:54;;;;;;;22.42;15.70;;;;;;;5.93;48.54;99493.97;1790472;79;21146;-65
2021/01/22 01:21:21;;;;;;;22.70;16.10;;;;;;;5.93;48.54;99495.28;1777235;79;21138;-66
2021/01/22 01:23:49;;;;;;;23.55;16.20;;;;;;;5.93;48.54;99484.73;1776529;79;21161;-66
2021/01/22 01:26:20;;;;;;;22.48;16.35;;;;;;;5.93;48.53;99487.38;1794075;78;21139;-67
2021/01/22 01:28:48;;;;;;;22.45;15.75;;;;;;;5.93;48.55;99482.56;1790702;79;21335;-66
2021/01/22 01:31:15;;;;;;;21.25;15.35;;;;;;;5.94;48.55;99475.02;1794469;79;21928;-66
2021/01/22 01:33:43;;;;;;;19.70;14.68;;;;;;;5.93;48.54;99483.42;1798448;78;21150;-64
2021/01/22 01:36:13;;;;;;;21.60;16.42;;;;;;;5.92;48.54;99479.11;1805433;78;21202;-65
2021/01/22 01:38:42;;;;;;;19.55;14.35;;;;;;;5.93;48.54;99477.30;1778672;78;21166;-65
2021/01/22 01:41:09;;;;;;;21.77;16.20;;;;;;;5.92;48.55;99473.83;1824612;78;22256;-64
2021/01/22 01:43:37;;;;;;;20.72;15.15;;;;;;;5.90;48.57;99464.74;1798697;79;21138;-65
2021/01/22 01:46:04;;;;;;;21.57;16.35;;;;;;;5.91;48.57;99462.95;1789711;78;21158;-64
2021/01/22 01:48:32;;;;;;;20.43;15.25;;;;;;;5.90;48.56;99460.79;1806868;78;21676;-66
2021/01/22 01:51:00;;;;;;;23.75;16.65;;;;;;;5.91;48.56;99454.55;1794574;78;21134;-66
2021/01/22 01:53:27;;;;;;;21.37;15.55;;;;;;;5.92;48.54;99463.28;1792982;78;22171;-66
2021/01/22 01:55:55;;;;;;;22.98;15.60;;;;;;;5.91;48.54;99453.73;1804642;79;21203;-65
2021/01/22 01:58:24;;;;;;;21.50;15.63;;;;;;;5.91;48.54;99460.32;1792113;78;21173;-64
2021/01/22 02:00:51;;;;;;;25.12;16.57;;;;;;;5.91;48.55;99455.05;1792347;79;21127;-65
2021/01/22 02:03:19;;;;;;;20.25;15.03;;;;;;;5.91;48.57;99447.14;1788885;79;21174;-66
2021/01/22 02:05:47;;;;;;;21.15;15.98;;;;;;;5.92;48.53;99434.28;1790014;79;21360;-65
2021/01/22 02:08:18;;;;;;;20.48;15.45;;;;;;;5.92;48.53;99426.38;1788992;79;21212;-66
2021/01/22 02:10:45;;;;;;;23.05;17.05;;;;;;;5.91;48.54;99432.64;1798377;78;21140;-65
2021/01/22 02:13:13;;;;;;;22.70;15.70;;;;;;;5.91;48.53;99449.78;1802749;78;21148;-66
2021/01/22 02:15:42;;;;;;;21.33;16.10;;;;;;;5.92;48.54;99446.15;1786919;79;21102;-65
2021/01/22 02:18:09;;;;;;;22.30;16.65;;;;;;;5.91;48.55;99457.19;1790045;79;22407;-64
2021/01/22 02:21:01;;;;;;;23.15;16.75;;;;;;;5.91;48.55;99440.55;1797515;79;21176;-65
2021/01/22 02:23:29;;;;;;;20.95;15.55;;;;;;;5.92;48.54;99454.06;1791322;79;21165;-65
2021/01/22 02:26:05;;;;;;;23.05;16.12;;;;;;;5.89;48.55;99447.28;1777406;79;21174;-66
2021/01/22 02:28:32;;;;;;;21.60;16.00;;;;;;;5.89;48.56;99443.33;1777179;79;21657;-66
2021/01/22 02:31:00;;;;;;;20.77;14.83;;;;;;;5.88;48.59;99442.97;1800917;79;21319;-66
2021/01/22 02:33:28;;;;;;;22.58;16.42;;;;;;;5.87;48.57;99461.09;1784290;79;21627;-65
2021/01/22 02:35:55;;;;;;;24.15;17.00;;;;;;;5.88;48.58;99443.46;1781061;79;21614;-65
2021/01/22 02:38:23;;;;;;;22.07;15.53;;;;;;;5.89;48.60;99439.38;1776002;79;21168;-65
2021/01/22 02:40:50;;;;;;;23.35;16.30;;;;;;;5.89;48.62;99430.14;1780235;79;21180;-65
2021/01/22 02:43:19;;;;;;;24.10;16.27;;;;;;;5.89;48.60;99443.79;1790780;79;21342;-65
2021/01/22 02:45:46;;;;;;;21.75;16.75;;;;;;;5.90;48.62;99429.64;1787850;79;21435;-66
2021/01/22 02:48:13;;;;;;;21.95;16.27;;;;;;;5.90;48.58;99432.28;1785274;79;21156;-65
2021/01/22 02:50:42;;;;;;;21.82;16.07;;;;;;;5.90;48.59;99418.60;1769616;79;21157;-65
2021/01/22 02:53:09;;;;;;;21.10;14.65;;;;;;;5.91;48.62;99432.64;1792611;79;21123;-64
2021/01/22 02:55:37;;;;;;;22.05;15.72;;;;;;;5.90;48.60;99416.46;1781474;79;21266;-65
2021/01/22 02:58:25;;;;;;;24.12;16.77;;;;;;;5.90;48.62;99421.73;1796565;79;21602;-65
2021/01/22 03:00:55;;;;;;;22.15;16.48;;;;;;;5.90;48.60;99417.78;1788064;79;21173;-64
2021/01/22 03:03:54;;;;;;;24.87;16.87;;;;;;;5.88;48.63;99411.33;1788504;79;21186;-65
2021/01/22 03:06:30;;;;;;;22.73;17.10;;;;;;;5.89;48.64;99413.47;1779588;79;21165;-64
2021/01/22 03:08:58;;;;;;;25.85;16.50;;;;;;;5.87;48.64;99408.37;1800250;79;21365;-65
2021/01/22 03:11:25;;;;;;;21.30;16.07;;;;;;;5.87;48.68;99408.83;1796844;78;21161;-65
2021/01/22 03:13:53;;;;;;;21.05;16.17;;;;;;;5.87;48.67;99411.47;1767841;79;21658;-65
2021/01/22 03:16:21;;;;;;;23.55;17.00;;;;;;;5.87;48.68;99404.41;1786087;79;21135;-66
2021/01/22 03:19:03;;;;;;;22.05;16.52;;;;;;;5.88;48.66;99403.92;1797385;79;21134;-65
2021/01/22 03:21:30;;;;;;;20.20;15.70;;;;;;;5.89;48.66;99405.09;1787918;79;21437;-65
2021/01/22 03:23:58;;;;;;;23.50;16.45;;;;;;;5.87;48.69;99402.24;1782786;79;21118;-66
2021/01/22 03:26:26;;;;;;;23.32;16.65;;;;;;;5.88;48.68;99392.05;1777670;79;21223;-66
2021/01/22 03:28:53;;;;;;;24.50;17.02;;;;;;;5.86;48.72;99391.37;1785822;79;21598;-65
2021/01/22 03:31:20;;;;;;;21.65;16.12;;;;;;;5.88;48.71;99397.33;1778849;78;21148;-66
2021/01/22 03:33:48;;;;;;;21.85;15.38;;;;;;;5.88;48.69;99405.23;1778867;79;21195;-66
2021/01/22 03:36:15;;;;;;;24.18;16.57;;;;;;;5.88;48.67;99410.02;1785341;78;21626;-66
2021/01/22 03:38:42;;;;;;;24.18;16.67;;;;;;;5.89;48.68;99401.61;1790977;79;21597;-67
2021/01/22 03:41:10;;;;;;;21.95;15.93;;;;;;;5.90;48.69;99399.33;1781834;78;21166;-65
2021/01/22 03:43:38;;;;;;;22.15;15.68;;;;;;;5.90;48.69;99401.96;1778158;79;21166;-66
2021/01/22 03:46:06;;;;;;;22.13;16.67;;;;;;;5.90;48.66;99396.69;1784553;79;21279;-68
2021/01/22 03:48:34;;;;;;;24.10;16.62;;;;;;;5.91;48.70;99391.77;1776868;79;21141;-65
2021/01/22 03:51:01;;;;;;;21.42;15.30;;;;;;;5.91;48.66;99393.91;1791117;79;21116;-65
2021/01/22 03:53:28;;;;;;;22.65;16.35;;;;;;;5.91;48.66;99393.91;1792136;79;21603;-66
2021/01/22 03:55:56;;;;;;;20.57;15.30;;;;;;;5.91;48.65;99399.19;1796300;79;21574;-66
2021/01/22 03:58:23;;;;;;;22.00;16.35;;;;;;;5.93;48.65;99402.15;1789952;79;21196;-66
2021/01/22 04:00:50;;;;;;;22.73;16.48;;;;;;;5.93;48.67;99393.77;1798199;79;22067;-65
2021/01/22 04:03:18;;;;;;;24.20;15.38;;;;;;;5.93;48.65;99399.05;1788801;78;21146;-65
2021/01/22 04:05:45;;;;;;;21.30;14.87;;;;;;;5.94;48.66;99403.33;1789025;79;21119;-65
2021/01/22 04:08:13;;;;;;;21.82;14.93;;;;;;;5.94;48.66;99407.28;1781316;79;21163;-66
2021/01/22 04:10:40;;;;;;;23.05;16.82;;;;;;;5.94;48.63;99408.60;1793680;78;21310;-65
2021/01/22 04:13:07;;;;;;;23.13;15.67;;;;;;;5.94;48.63;99406.46;1797285;79;21559;-66
2021/01/22 04:15:36;;;;;;;21.42;15.70;;;;;;;5.96;48.66;99412.45;1802586;79;21562;-66
2021/01/22 04:18:03;;;;;;;24.35;17.45;;;;;;;5.95;48.63;99407.67;1801603;78;21173;-66
2021/01/22 04:20:31;;;;;;;21.87;16.40;;;;;;;5.94;48.63;99403.33;1795830;78;21112;-66
2021/01/22 04:22:59;;;;;;;23.02;16.35;;;;;;;5.95;48.64;99405.47;1794287;78;21690;-67
2021/01/22 04:25:26;;;;;;;21.17;15.80;;;;;;;5.94;48.66;99390.64;1783068;79;21186;-66
2021/01/22 04:27:53;;;;;;;22.37;16.55;;;;;;;5.95;48.65;99391.85;1790992;79;21158;-64
2021/01/22 04:30:22;;;;;;;22.02;16.12;;;;;;;5.95;48.63;99383.94;1797012;79;21143;-65
2021/01/22 04:32:49;;;;;;;24.30;16.65;;;;;;;5.96;48.65;99393.99;1787802;78;21555;-65
2021/01/22 04:35:17;;;;;;;23.00;16.48;;;;;;;5.96;48.65;99376.35;1792444;78;21349;-67
2021/01/22 04:37:44;;;;;;;20.82;15.10;;;;;;;5.96;48.66;99378.17;1804141;78;21207;-66
2021/01/22 04:40:13;;;;;;;22.40;15.35;;;;;;;5.96;48.66;99390.86;1796828;79;21145;-65
2021/01/22 04:42:41;;;;;;;22.67;15.60;;;;;;;5.97;48.66;99386.41;1791190;78;21208;-66
2021/01/22 04:45:12;;;;;;;21.23;15.63;;;;;;;5.97;48.67;99395.17;1792806;79;21162;-68
2021/01/22 04:47:39;;;;;;;21.50;15.25;;;;;;;5.97;48.67;99380.67;1776792;78;21200;-66
2021/01/22 04:50:10;;;;;;;21.40;15.98;;;;;;;5.97;48.67;99384.63;1782588;78;21127;-67
2021/01/22 04:52:39;;;;;;;20.00;14.90;;;;;;;5.97;48.68;99383.77;1780010;78;21154;-66
2021/01/22 04:55:07;;;;;;;21.68;15.88;;;;;;;5.96;48.67;99380.31;1792405;78;21177;-68
2021/01/22 04:57:47;;;;;;;20.20;14.35;;;;;;;5.97;48.71;99380.67;1785885;79;21193;-68
2021/01/22 05:00:16;;;;;;;22.17;15.75;;;;;;;5.97;48.66;99379.34;1779896;79;21380;-67
2021/01/22 05:02:43;;;;;;;21.93;15.32;;;;;;;5.96;48.70;99382.95;1792594;79;21164;-66
2021/01/22 05:05:11;;;;;;;21.50;15.78;;;;;;;5.96;48.72;99386.90;1784687;79;21106;-66
2021/01/22 05:07:39;;;;;;;22.98;16.23;;;;;;;5.97;48.70;99379.81;1779570;79;21585;-66
2021/01/22 05:10:09;;;;;;;22.58;16.32;;;;;;;5.98;48.72;99394.17;1782558;78;21197;-66
2021/01/22 05:12:40;;;;;;;22.55;15.68;;;;;;;5.99;48.71;99391.04;1798416;79;21613;-66
2021/01/22 05:15:24;;;;;;;24.10;16.10;;;;;;;5.98;48.71;99396.81;1791544;79;21153;-66
2021/01/22 05:18:02;;;;;;;22.25;15.40;;;;;;;5.99;48.71;99395.00;1785668;79;28291;-69
2021/01/22 05:20:37;;;;;;;22.07;16.48;;;;;;;5.98;48.72;99387.58;1789954;79;21146;-69
2021/01/22 05:23:06;;;;;;;22.42;16.55;;;;;;;5.97;48.77;99389.04;1777653;78;21161;-65
2021/01/22 05:25:56;;;;;;;21.23;15.08;;;;;;;5.97;48.77;99389.89;1789862;79;21192;-65
2021/01/22 05:28:47;;;;;;;20.25;15.90;;;;;;;5.97;48.77;99386.41;1789161;78;21138;-66
2021/01/22 05:31:17;;;;;;;22.35;15.90;;;;;;;5.97;48.79;99387.72;1796480;79;21186;-67
2021/01/22 05:33:56;;;;;;;21.07;15.98;;;;;;;5.95;48.78;99390.53;1790382;79;21193;-67
2021/01/22 05:36:26;;;;;;;20.68;16.05;;;;;;;5.95;48.83;99382.63;1793208;79;21199;-67
2021/01/22 05:38:55;;;;;;;22.27;15.85;;;;;;;5.95;48.83;99383.94;1789469;77;21271;-67
2021/01/22 05:41:23;;;;;;;23.27;15.48;;;;;;;5.97;48.85;99391.67;1785062;79;21188;-66
2021/01/22 05:43:51;;;;;;;26.10;17.75;;;;;;;5.96;48.85;99388.22;1794560;79;21615;-68
2021/01/22 05:46:21;;;;;;;21.85;16.57;;;;;;;5.97;48.85;99397.80;1791781;78;21602;-67
2021/01/22 05:49:12;;;;;;;23.62;16.10;;;;;;;5.97;48.87;99391.22;1793235;77;21149;-68
2021/01/22 05:51:41;;;;;;;21.52;15.72;;;;;;;5.99;48.87;99389.26;1798231;79;21192;-68
2021/01/22 05:54:08;;;;;;;21.37;16.07;;;;;;;5.99;48.86;99387.09;1795042;78;21166;-67
2021/01/22 05:56:36;;;;;;;23.25;16.35;;;;;;;5.99;48.87;99385.30;1785992;79;21145;-67
2021/01/22 05:59:15;;;;;;;24.98;17.60;;;;;;;6.00;48.86;99398.81;1792756;79;21157;-66
2021/01/22 06:01:42;;;;;;;24.50;18.02;;;;;;;6.01;48.85;99397.03;1779392;79;21156;-67
2021/01/22 06:04:10;;;;;;;23.92;17.50;;;;;;;6.02;48.84;99405.27;1787993;78;21202;-67
2021/01/22 06:06:38;;;;;;;23.73;16.25;;;;;;;6.02;48.83;99396.85;1784510;79;21131;-67
2021/01/22 06:09:07;;;;;;;22.85;16.95;;;;;;;6.02;48.84;99399.48;1788711;78;21205;-66
2021/01/22 06:11:36;;;;;;;23.85;17.10;;;;;;;6.04;48.82;99398.85;1778128;79;21184;-67
2021/01/22 06:14:06;;;;;;;21.07;16.32;;;;;;;6.05;48.83;99407.13;1791872;79;21142;-66
2021/01/22 06:16:35;;;;;;;23.95;17.15;;;;;;;6.06;48.83;99399.53;1783701;79;21387;-66
2021/01/22 06:19:06;;;;;;;23.32;17.07;;;;;;;6.07;48.82;99401.20;1787886;78;21149;-66
2021/01/22 06:21:47;;;;;;;21.15;16.12;;;;;;;6.07;48.82;99405.16;1781566;79;21149;-66
2021/01/22 06:24:15;;;;;;;21.70;15.50;;;;;;;6.08;48.82;99411.27;1795987;78;21134;-65
2021/01/22 06:26:42;;;;;;;24.47;16.25;;;;;;;6.08;48.81;99396.29;1802222;79;21201;-68
2021/01/22 06:29:10;;;;;;;26.37;17.98;;;;;;;6.09;48.81;99386.06;1796103;77;21679;-67
2021/01/22 06:31:38;;;;;;;24.82;16.62;;;;;;;6.11;48.79;99391.20;1788132;79;21212;-67
2021/01/22 06:34:07;;;;;;;23.75;17.35;;;;;;;6.12;48.79;99390.70;1801963;77;21170;-67
2021/01/22 06:36:34;;;;;;;26.73;18.02;;;;;;;6.13;48.79;99393.70;1787382;77;21189;-68
2021/01/22 06:39:03;;;;;;;23.73;16.90;;;;;;;6.13;48.77;99395.02;1786524;77;21114;-67
2021/01/22 06:41:31;;;;;;;24.07;17.40;;;;;;;6.15;48.77;99394.38;1797797;79;22260;-68
2021/01/22 06:43:59;;;;;;;25.52;17.57;;;;;;;6.16;48.77;99395.55;1795570;77;22112;-67
2021/01/22 06:46:30;;;;;;;22.32;16.10;;;;;;;6.17;48.76;99383.19;1793100;79;21181;-66
2021/01/22 06:49:04;;;;;;;23.00;17.87;;;;;;;6.18;48.78;99375.13;1785199;79;21126;-68
2021/01/22 06:51:36;;;;;;;24.20;17.70;;;;;;;6.19;48.74;99392.60;1805602;79;21090;-66
2021/01/22 06:54:16;;;;;;;22.30;16.82;;;;;;;6.20;48.74;99384.19;1792714;79;21198;-67
2021/01/22 06:57:07;;;;;;;23.80;17.32;;;;;;;6.20;48.74;99388.14;1785059;79;21546;-67
2021/01/22 06:59:37;;;;;;;23.27;16.17;;;;;;;6.21;48.73;99388.50;1796268;79;21154;-67
2021/01/22 07:02:35;;;;;;;23.27;16.57;;;;;;;6.21;48.74;99388.00;1788598;79;21145;-66
2021/01/22 07:05:25;;;;;;;23.98;17.70;;;;;;;6.23;48.75;99386.54;1784906;77;21209;-68
2021/01/22 07:07:53;;;;;;;21.73;16.05;;;;;;;6.24;48.74;99375.03;1782347;79;21377;-67
2021/01/22 07:10:21;;;;;;;24.40;17.45;;;;;;;6.24;48.74;99369.25;1794385;79;21192;-67
2021/01/22 07:13:37;;;;;;;22.63;17.33;;;;;;;6.33;48.73;99393.07;1754579;78;25683;-66
2021/01/22 07:16:10;;;;;;;24.52;16.87;;;;;;;6.32;48.71;99388.30;1683355;85;21203;-67
2021/01/22 07:18:51;;;;;;;22.87;17.33;;;;;;;6.40;48.66;99383.09;1841270;77;25087;-68
2021/01/22 07:21:38;;;;;;;24.90;18.48;;;;;;;6.39;48.63;99374.00;1831873;77;21162;-67
2021/01/22 07:24:12;;;;;;;23.80;16.87;;;;;;;6.41;48.59;99378.17;1844628;77;21375;-67
2021/01/22 07:26:47;;;;;;;23.52;17.70;;;;;;;6.44;48.57;99378.34;1841736;77;21160;-67
2021/01/22 07:29:25;;;;;;;25.70;17.73;;;;;;;6.46;48.56;99372.42;1834194;77;21024;-67
2021/01/22 07:31:58;;;;;;;23.25;17.73;;;;;;;6.48;48.54;99377.06;1838577;77;21123;-66
2021/01/22 07:34:48;;;;;;;24.23;18.48;;;;;;;6.51;48.54;99386.01;1835348;77;21147;-67
2021/01/22 07:37:23;;;;;;;23.80;17.95;;;;;;;6.54;48.52;99383.55;1789807;78;21396;-67
2021/01/22 07:39:51;;;;;;;;;;;;;;;6.56;48.51;99382.91;1824229;77;21147;-66
2021/01/22 07:42:26;;;;;;;23.05;16.50;;;;;;;6.57;48.51;99376.16;1822448;78;20271;-66
2021/01/22 07:44:54;;;;;;;23.07;17.20;;;;;;;6.54;48.56;99384.87;1823196;78;21623;-67
2021/01/22 07:47:28;;;;;;;23.55;17.82;;;;;;;6.57;48.55;99377.98;1823118;78;21110;-68
2021/01/22 07:50:10;;;;;;;24.98;17.87;;;;;;;6.61;48.50;99378.02;1837917;77;21293;-67
2021/01/22 07:52:46;;;;;;;24.60;17.20;;;;;;;6.64;48.47;99381.16;1835575;77;21190;-67
2021/01/22 07:55:23;;;;;;;26.10;17.40;;;;;;;6.66;48.45;99397.70;1849775;77;21142;-67
2021/01/22 07:58:05;;;;;;;25.80;18.67;;;;;;;6.68;48.43;99388.28;1823062;77;21249;-65
2021/01/22 08:00:39;;;;;;;25.45;17.95;;;;;;;6.71;48.39;99385.35;1810367;79;21135;-67
2021/01/22 08:03:08;;;;;;;22.50;16.95;;;;;;;6.73;48.39;99381.25;1804857;78;21369;-66
2021/01/22 08:05:37;;;;;;;24.50;17.73;;;;;;;6.75;48.37;99376.14;1847982;77;21099;-68
2021/01/22 08:08:22;;;;;;;24.67;17.10;;;;;;;6.77;48.35;99385.23;1821539;77;21162;-66
2021/01/22 08:10:50;;;;;;;24.65;17.95;;;;;;;6.80;48.34;99378.31;1814123;78;21223;-67
2021/01/22 08:13:18;;;;;;;23.55;17.67;;;;;;;6.82;48.31;99381.66;1822519;77;21575;-69
2021/01/22 08:15:45;;;;;;;26.27;17.95;;;;;;;6.85;48.29;99379.52;1797885;77;21836;-69
2021/01/22 08:18:13;;;;;;;23.38;16.93;;;;;;;6.88;48.23;99375.77;1817199;78;21642;-67
2021/01/22 08:20:51;;;;;;;23.75;17.52;;;;;;;6.90;48.20;99379.08;1793330;80;21209;-65
2021/01/22 08:23:21;;;;;;;21.73;17.02;;;;;;;6.94;48.19;99376.96;1796063;79;21615;-66
2021/01/22 08:25:48;;;;;;;25.72;19.02;;;;;;;6.96;48.16;99381.59;1792880;80;21211;-68
2021/01/22 08:28:15;;;;;;;22.98;17.77;;;;;;;6.98;48.14;99374.34;1800612;78;22743;-69
2021/01/22 08:30:43;;;;;;;24.05;17.45;;;;;;;6.99;48.13;99367.59;1795760;79;21199;-68
2021/01/22 08:33:11;;;;;;;22.82;17.52;;;;;;;7.03;48.09;99370.73;1798380;79;21143;-67
2021/01/22 08:35:38;;;;;;;26.55;19.10;;;;;;;7.04;48.06;99374.55;1796992;79;21196;-66
2021/01/22 08:38:06;;;;;;;24.30;19.02;;;;;;;7.07;48.04;99375.57;1796573;79;21129;-66
2021/01/22 08:40:46;;;;;;;22.87;18.10;;;;;;;7.09;48.03;99385.48;1786825;80;21606;-65
2021/01/22 08:43:13;;;;;;;24.90;17.90;;;;;;;7.12;48.00;99375.59;1784726;79;22693;-66
2021/01/22 08:45:41;;;;;;;22.45;17.70;;;;;;;7.13;47.95;99382.05;1780985;80;21173;-67
2021/01/22 08:48:10;;;;;;;23.38;17.35;;;;;;;7.14;47.95;99375.77;1764061;79;21174;-69
2021/01/22 08:50:39;;;;;;;23.05;17.30;;;;;;;7.15;47.92;99380.08;1791823;79;21203;-67
2021/01/22 08:53:15;;;;;;;25.88;18.27;;;;;;;7.17;47.92;99368.87;1773530;80;21556;-66
2021/01/22 08:55:43;;;;;;;22.20;17.02;;;;;;;7.18;47.90;99358.62;1813285;77;21114;-67
2021/01/22 08:58:11;;;;;;;24.77;18.70;;;;;;;7.21;47.88;99349.58;1812574;78;21185;-66
2021/01/22 09:00:40;;;;;;;23.38;17.80;;;;;;;7.22;47.86;99357.35;1790046;79;21153;-68
2021/01/22 09:03:23;;;;;;;23.35;16.75;;;;;;;7.24;47.85;99354.53;1781878;79;21163;-66
2021/01/22 09:05:54;;;;;;;22.13;17.07;;;;;;;7.24;47.83;99354.53;1789281;79;22277;-67
2021/01/22 09:08:22;;;;;;;24.43;18.25;;;;;;;7.25;47.83;99349.09;1787118;79;21638;-66
2021/01/22 09:10:50;;;;;;;25.35;18.75;;;;;;;7.26;47.80;99340.20;1797348;79;21116;-66
2021/01/22 09:13:23;;;;;;;25.95;18.35;;;;;;;7.28;47.81;99350.11;1816559;78;21126;-66
2021/01/22 09:16:05;;;;;;;21.37;17.12;;;;;;;7.31;47.79;99353.43;1799077;79;21163;-68
2021/01/22 09:18:32;;;;;;;23.10;17.92;;;;;;;7.33;47.78;99352.78;1798183;79;21174;-65
2021/01/22 09:21:05;;;;;;;23.27;17.52;;;;;;;7.34;47.77;99349.98;1783337;79;21198;-68
2021/01/22 09:23:38;;;;;;;26.23;18.87;;;;;;;7.37;47.72;99350.97;1793089;80;21101;-66
2021/01/22 09:26:06;;;;;;;24.43;18.12;;;;;;;7.39;47.70;99338.42;1773670;79;21142;-67
2021/01/22 09:28:33;;;;;;;22.55;17.48;;;;;;;7.41;47.63;99332.99;1809560;79;21135;-67
2021/01/22 09:31:00;;;;;;;24.65;18.30;;;;;;;7.45;47.62;99335.65;1812013;79;21746;-69
2021/01/22 09:33:28;;;;;;;24.77;18.12;;;;;;;7.48;47.59;99330.06;1787615;80;22223;-68
2021/01/22 09:35:57;;;;;;;21.20;17.27;;;;;;;7.50;47.57;99321.48;1776039;79;21582;-65
2021/01/22 09:38:25;;;;;;;21.17;17.25;;;;;;;7.54;47.53;99329.42;1788467;79;21584;-67
2021/01/22 09:40:53;;;;;;;24.63;18.07;;;;;;;7.58;47.46;99326.80;1803664;79;21134;-67
2021/01/22 09:43:20;;;;;;;23.90;18.52;;;;;;;7.62;47.43;99325.48;1790017;78;21197;-71
2021/01/22 09:45:50;;;;;;;22.22;17.30;;;;;;;7.66;47.38;99326.00;1786399;78;21212;-68
2021/01/22 09:48:18;;;;;;;24.18;18.20;;;;;;;7.70;47.35;99327.33;1795238;79;21598;-68
2021/01/22 09:50:47;;;;;;;23.07;17.77;;;;;;;7.74;47.28;99325.20;1799390;78;21183;-68
2021/01/22 09:53:15;;;;;;;24.43;17.42;;;;;;;7.78;47.21;99319.92;1803149;78;21146;-69
2021/01/22 09:55:44;;;;;;;23.55;18.42;;;;;;;7.81;47.13;99314.33;1799446;78;21251;-67
2021/01/22 09:58:11;;;;;;;24.37;17.92;;;;;;;7.84;47.06;99305.58;1812794;78;21166;-69
2021/01/22 10:00:39;;;;;;;21.23;16.10;;;;;;;7.89;47.00;99305.08;1801619;79;21174;-67
2021/01/22 10:03:06;;;;;;;23.42;17.80;;;;;;;7.93;46.96;99309.06;1789208;79;21142;-66
2021/01/22 10:05:34;;;;;;;24.20;17.98;;;;;;;7.98;46.92;99307.27;1792950;79;21106;-69
2021/01/22 10:08:02;;;;;;;22.90;17.87;;;;;;;8.02;46.85;99298.83;1786086;79;21353;-68
2021/01/22 10:10:30;;;;;;;23.00;17.85;;;;;;;8.10;46.80;99311.75;1761727;79;21169;-67
2021/01/22 10:12:58;;;;;;;22.35;16.07;;;;;;;8.15;46.81;99301.02;1766153;80;21186;-66
2021/01/22 10:15:25;;;;;;;21.85;17.20;;;;;;;8.22;46.76;99293.23;1809026;78;21137;-68
2021/01/22 10:17:52;;;;;;;21.42;16.07;;;;;;;8.29;46.67;99290.28;1778828;79;21155;-67
2021/01/22 10:20:21;;;;;;;20.32;16.12;;;;;;;8.36;46.61;99295.22;1813344;79;21901;-65
2021/01/22 10:22:48;;;;;;;20.05;15.65;;;;;;;8.41;46.58;99290.30;1789550;78;21158;-66
2021/01/22 10:25:15;;;;;;;22.55;15.95;;;;;;;8.49;46.71;99287.34;1789303;79;21143;-66
2021/01/22 10:27:43;;;;;;;21.00;16.37;;;;;;;8.57;46.51;99292.63;1796574;79;21137;-65
2021/01/22 10:30:12;;;;;;;21.57;15.98;;;;;;;8.66;46.48;99283.18;1805950;79;21163;-66
2021/01/22 10:32:40;;;;;;;20.60;15.05;;;;;;;8.75;46.38;99279.19;1784176;80;22768;-66
2021/01/22 10:35:10;;;;;;;20.77;15.45;;;;;;;8.83;46.21;99278.70;1791831;79;21962;-66
2021/01/22 10:37:37;;;;;;;19.15;15.32;;;;;;;8.94;46.40;99279.33;1770018;79;21618;-67
2021/01/22 10:40:07;;;;;;;20.12;14.87;;;;;;;9.02;46.37;99273.53;1784357;80;21122;-67
2021/01/22 10:42:34;;;;;;;21.27;15.90;;;;;;;9.11;46.15;99273.50;1795512;79;21563;-68
2021/01/22 10:45:03;;;;;;;18.40;14.18;;;;;;;9.19;46.08;99265.04;1793798;79;21188;-67
2021/01/22 10:47:31;;;;;;;19.07;14.98;;;;;;;9.28;46.13;99248.59;1787319;79;21210;-68
2021/01/22 10:49:59;;;;;;;19.32;15.15;;;;;;;9.37;46.00;99258.68;1780497;79;21156;-67
2021/01/22 10:52:28;;;;;;;19.85;15.45;;;;;;;9.43;45.81;99244.73;1792792;79;21201;-65
2021/01/22 10:54:55;;;;;;;18.98;15.10;;;;;;;9.51;45.66;99238.05;1785617;79;21129;-67
2021/01/22 10:57:22;;;;;;;19.27;15.80;;;;;;;9.61;46.03;99237.84;1805854;79;21186;-69
2021/01/22 10:59:50;;;;;;;18.32;14.63;;;;;;;9.74;46.33;99229.32;1802383;79;21754;-68
2021/01/22 11:02:17;;;;;;;19.02;14.87;;;;;;;9.88;46.46;99227.23;1793616;79;21149;-65
2021/01/22 11:04:45;;;;;;;18.17;14.35;;;;;;;10.03;46.50;99232.61;1790245;79;21120;-67
2021/01/22 11:07:13;;;;;;;17.15;13.95;;;;;;;10.18;46.49;99228.69;1802792;79;21133;-67
2021/01/22 11:09:43;;;;;;;17.17;13.60;;;;;;;10.33;46.09;99228.75;1805838;79;23479;-68
2021/01/22 11:12:13;;;;;;;17.45;14.43;;;;;;;10.47;45.96;99225.80;1798259;79;21168;-66
2021/01/22 11:14:40;;;;;;;19.27;14.70;;;;;;;10.63;46.08;99225.15;1790615;79;21187;-68
2021/01/22 11:17:07;;;;;;;18.60;14.10;;;;;;;10.79;45.95;99216.18;1766057;80;21149;-68
2021/01/22 11:19:35;;;;;;;16.12;13.10;;;;;;;10.98;45.92;99213.48;1794753;79;21159;-68
2021/01/22 11:22:02;;;;;;;19.75;14.73;;;;;;;11.24;45.59;99222.81;1776891;79;22136;-67
2021/01/22 11:24:29;;;;;;;16.73;13.53;;;;;;;11.56;45.21;99210.94;1782533;78;21190;-68
2021/01/22 11:26:57;;;;;;;19.12;14.33;;;;;;;11.91;44.77;99208.47;1796011;79;21150;-68
2021/01/22 11:29:25;;;;;;;17.75;13.88;;;;;;;12.31;44.11;99212.83;1792626;80;21134;-68
2021/01/22 11:31:52;;;;;;;16.62;13.50;;;;;;;12.69;43.32;99200.52;1787596;79;21214;-68
2021/01/22 11:34:20;;;;;;;17.20;13.55;;;;;;;13.07;42.48;99196.10;1799324;79;21208;-68
2021/01/22 11:36:48;;;;;;;15.08;12.07;;;;;;;13.46;41.71;99193.34;1786656;79;21175;-67
2021/01/22 11:39:15;;;;;;;15.40;12.68;;;;;;;13.84;40.99;99194.66;1792209;79;22782;-70